sensor_id;sensor_type;location;lat;lon;timestamp;P1;durP1;ratioP1;P2;durP2;ratioP2
73550;SDS011;61816;53.582;10.096;2023-05-07T00:00:46;23.15;;;13.05;;
73550;SDS011;61816;53.582;10.096;2023-05-07T00:03:12;21.33;;;13.82;;
73550;SDS011;61816;53.582;10.096;2023-05-07T00:05:38;19.10;;;12.85;;
73550;SDS011;61816;53.582;10.096;2023-05-07T00:08:04;20.33;;;13.38;;
73550;SDS011;61816;53.582;10.096;2023-05-07T00:10:30;21.02;;;12.82;;
73550;SDS011;61816;53.582;10.096;2023-05-07T00:12:55;19.20;;;12.55;;
73550;SDS011;61816;53.582;10.096;2023-05-07T00:15:20;18.83;;;12.93;;
73550;SDS011;61816;53.582;10.096;2023-05-07T00:17:45;20.83;;;13.70;;
73550;SDS011;61816;53.582;10.096;2023-05-07T00:20:11;20.40;;;13.48;;
73550;SDS011;61816;53.582;10.096;2023-05-07T00:22:37;19.67;;;14.13;;
73550;SDS011;61816;53.582;10.096;2023-05-07T00:25:02;26.35;;;14.57;;
73550;SDS011;61816;53.582;10.096;2023-05-07T00:27:28;23.58;;;16.10;;
73550;SDS011;61816;53.582;10.096;2023-05-07T00:29:53;22.58;;;13.85;;
73550;SDS011;61816;53.582;10.096;2023-05-07T00:32:19;23.70;;;14.20;;
73550;SDS011;61816;53.582;10.096;2023-05-07T00:34:44;23.58;;;13.75;;
73550;SDS011;61816;53.582;10.096;2023-05-07T00:37:10;21.17;;;13.98;;
73550;SDS011;61816;53.582;10.096;2023-05-07T00:39:36;19.88;;;14.07;;
73550;SDS011;61816;53.582;10.096;2023-05-07T00:42:02;23.02;;;14.70;;
73550;SDS011;61816;53.582;10.096;2023-05-07T00:44:28;29.55;;;14.50;;
73550;SDS011;61816;53.582;10.096;2023-05-07T00:46:54;21.08;;;14.88;;
73550;SDS011;61816;53.582;10.096;2023-05-07T00:49:22;26.23;;;15.52;;
73550;SDS011;61816;53.582;10.096;2023-05-07T00:51:50;23.90;;;15.18;;
73550;SDS011;61816;53.582;10.096;2023-05-07T00:54:16;22.40;;;14.98;;
73550;SDS011;61816;53.582;10.096;2023-05-07T00:56:41;25.25;;;16.25;;
73550;SDS011;61816;53.582;10.096;2023-05-07T00:59:07;21.52;;;14.98;;
73550;SDS011;61816;53.582;10.096;2023-05-07T01:01:33;23.55;;;15.52;;
73550;SDS011;61816;53.582;10.096;2023-05-07T01:03:58;24.92;;;16.33;;
73550;SDS011;61816;53.582;10.096;2023-05-07T01:06:24;24.80;;;14.77;;
73550;SDS011;61816;53.582;10.096;2023-05-07T01:08:52;22.90;;;15.20;;
73550;SDS011;61816;53.582;10.096;2023-05-07T01:11:21;23.50;;;14.65;;
73550;SDS011;61816;53.582;10.096;2023-05-07T01:13:47;23.67;;;14.77;;
73550;SDS011;61816;53.582;10.096;2023-05-07T01:16:15;17.48;;;12.80;;
73550;SDS011;61816;53.582;10.096;2023-05-07T01:18:41;18.42;;;13.07;;
73550;SDS011;61816;53.582;10.096;2023-05-07T01:21:06;16.30;;;12.27;;
73550;SDS011;61816;53.582;10.096;2023-05-07T01:23:33;19.75;;;13.43;;
73550;SDS011;61816;53.582;10.096;2023-05-07T01:26:00;20.13;;;12.80;;
73550;SDS011;61816;53.582;10.096;2023-05-07T01:28:25;20.48;;;12.95;;
73550;SDS011;61816;53.582;10.096;2023-05-07T01:30:52;20.00;;;13.90;;
73550;SDS011;61816;53.582;10.096;2023-05-07T01:33:20;20.50;;;13.57;;
73550;SDS011;61816;53.582;10.096;2023-05-07T01:35:47;22.83;;;12.63;;
73550;SDS011;61816;53.582;10.096;2023-05-07T01:38:16;19.20;;;12.80;;
73550;SDS011;61816;53.582;10.096;2023-05-07T01:40:42;22.58;;;12.77;;
73550;SDS011;61816;53.582;10.096;2023-05-07T01:43:08;17.92;;;12.85;;
73550;SDS011;61816;53.582;10.096;2023-05-07T01:45:34;19.10;;;12.52;;
73550;SDS011;61816;53.582;10.096;2023-05-07T01:48:00;23.73;;;12.32;;
73550;SDS011;61816;53.582;10.096;2023-05-07T01:50:26;23.85;;;12.30;;
73550;SDS011;61816;53.582;10.096;2023-05-07T01:52:52;25.77;;;13.65;;
73550;SDS011;61816;53.582;10.096;2023-05-07T01:55:18;19.20;;;13.25;;
73550;SDS011;61816;53.582;10.096;2023-05-07T01:57:44;21.40;;;14.13;;
73550;SDS011;61816;53.582;10.096;2023-05-07T02:00:09;17.83;;;12.23;;
73550;SDS011;61816;53.582;10.096;2023-05-07T02:02:35;23.13;;;12.88;;
73550;SDS011;61816;53.582;10.096;2023-05-07T02:05:01;23.20;;;12.68;;
73550;SDS011;61816;53.582;10.096;2023-05-07T02:07:27;20.17;;;12.85;;
73550;SDS011;61816;53.582;10.096;2023-05-07T02:09:53;20.95;;;12.07;;
73550;SDS011;61816;53.582;10.096;2023-05-07T02:12:20;18.80;;;12.13;;
73550;SDS011;61816;53.582;10.096;2023-05-07T02:14:46;20.52;;;11.60;;
73550;SDS011;61816;53.582;10.096;2023-05-07T02:17:11;16.42;;;11.63;;
73550;SDS011;61816;53.582;10.096;2023-05-07T02:19:36;17.45;;;11.27;;
73550;SDS011;61816;53.582;10.096;2023-05-07T02:22:02;20.00;;;11.93;;
73550;SDS011;61816;53.582;10.096;2023-05-07T02:24:27;18.67;;;10.55;;
73550;SDS011;61816;53.582;10.096;2023-05-07T02:26:52;20.00;;;11.70;;
73550;SDS011;61816;53.582;10.096;2023-05-07T02:29:17;16.73;;;11.68;;
73550;SDS011;61816;53.582;10.096;2023-05-07T02:31:43;17.05;;;12.00;;
73550;SDS011;61816;53.582;10.096;2023-05-07T02:34:08;15.27;;;10.55;;
73550;SDS011;61816;53.582;10.096;2023-05-07T02:36:33;24.48;;;11.18;;
73550;SDS011;61816;53.582;10.096;2023-05-07T02:38:59;17.33;;;11.88;;
73550;SDS011;61816;53.582;10.096;2023-05-07T02:41:24;21.08;;;13.20;;
73550;SDS011;61816;53.582;10.096;2023-05-07T02:43:49;20.30;;;13.15;;
73550;SDS011;61816;53.582;10.096;2023-05-07T02:46:15;23.08;;;13.15;;
73550;SDS011;61816;53.582;10.096;2023-05-07T02:48:40;21.52;;;12.70;;
73550;SDS011;61816;53.582;10.096;2023-05-07T02:51:06;23.80;;;13.38;;
73550;SDS011;61816;53.582;10.096;2023-05-07T02:53:31;18.23;;;12.70;;
73550;SDS011;61816;53.582;10.096;2023-05-07T02:55:57;21.52;;;12.80;;
73550;SDS011;61816;53.582;10.096;2023-05-07T02:58:23;22.02;;;13.52;;
73550;SDS011;61816;53.582;10.096;2023-05-07T03:00:49;21.30;;;13.00;;
73550;SDS011;61816;53.582;10.096;2023-05-07T03:03:14;19.48;;;12.75;;
73550;SDS011;61816;53.582;10.096;2023-05-07T03:05:40;21.30;;;14.18;;
73550;SDS011;61816;53.582;10.096;2023-05-07T03:08:05;19.58;;;13.38;;
73550;SDS011;61816;53.582;10.096;2023-05-07T03:10:31;22.85;;;13.07;;
73550;SDS011;61816;53.582;10.096;2023-05-07T03:12:56;22.95;;;14.18;;
73550;SDS011;61816;53.582;10.096;2023-05-07T03:15:21;26.33;;;14.50;;
73550;SDS011;61816;53.582;10.096;2023-05-07T03:17:47;24.40;;;14.00;;
73550;SDS011;61816;53.582;10.096;2023-05-07T03:20:13;26.88;;;14.50;;
73550;SDS011;61816;53.582;10.096;2023-05-07T03:22:38;23.27;;;14.18;;
73550;SDS011;61816;53.582;10.096;2023-05-07T03:25:04;20.95;;;14.25;;
73550;SDS011;61816;53.582;10.096;2023-05-07T03:27:30;20.65;;;13.07;;
73550;SDS011;61816;53.582;10.096;2023-05-07T03:29:56;19.38;;;13.38;;
73550;SDS011;61816;53.582;10.096;2023-05-07T03:32:21;20.83;;;13.10;;
73550;SDS011;61816;53.582;10.096;2023-05-07T03:34:46;21.45;;;13.30;;
73550;SDS011;61816;53.582;10.096;2023-05-07T03:37:12;18.70;;;13.18;;
73550;SDS011;61816;53.582;10.096;2023-05-07T03:39:37;22.35;;;12.68;;
73550;SDS011;61816;53.582;10.096;2023-05-07T03:42:02;23.25;;;12.98;;
73550;SDS011;61816;53.582;10.096;2023-05-07T03:44:28;22.85;;;12.43;;
73550;SDS011;61816;53.582;10.096;2023-05-07T03:46:53;17.67;;;12.57;;
73550;SDS011;61816;53.582;10.096;2023-05-07T03:49:19;20.23;;;13.15;;
73550;SDS011;61816;53.582;10.096;2023-05-07T03:51:44;18.00;;;12.35;;
73550;SDS011;61816;53.582;10.096;2023-05-07T03:54:10;18.98;;;11.98;;
73550;SDS011;61816;53.582;10.096;2023-05-07T03:56:35;16.60;;;11.98;;
73550;SDS011;61816;53.582;10.096;2023-05-07T03:59:01;18.40;;;13.25;;
73550;SDS011;61816;53.582;10.096;2023-05-07T04:01:26;18.23;;;11.80;;
73550;SDS011;61816;53.582;10.096;2023-05-07T04:03:52;17.95;;;12.55;;
73550;SDS011;61816;53.582;10.096;2023-05-07T04:06:17;23.25;;;12.88;;
73550;SDS011;61816;53.582;10.096;2023-05-07T04:08:43;18.63;;;12.32;;
73550;SDS011;61816;53.582;10.096;2023-05-07T04:11:08;17.88;;;12.45;;
73550;SDS011;61816;53.582;10.096;2023-05-07T04:13:34;21.30;;;11.80;;
73550;SDS011;61816;53.582;10.096;2023-05-07T04:16:00;18.45;;;12.00;;
73550;SDS011;61816;53.582;10.096;2023-05-07T04:18:27;16.58;;;11.57;;
73550;SDS011;61816;53.582;10.096;2023-05-07T04:20:53;19.33;;;10.82;;
73550;SDS011;61816;53.582;10.096;2023-05-07T04:23:18;18.52;;;11.75;;
73550;SDS011;61816;53.582;10.096;2023-05-07T04:25:44;17.90;;;11.15;;
73550;SDS011;61816;53.582;10.096;2023-05-07T04:28:10;17.80;;;11.05;;
73550;SDS011;61816;53.582;10.096;2023-05-07T04:30:36;18.13;;;11.25;;
73550;SDS011;61816;53.582;10.096;2023-05-07T04:33:01;20.23;;;12.07;;
73550;SDS011;61816;53.582;10.096;2023-05-07T04:35:26;18.98;;;11.32;;
73550;SDS011;61816;53.582;10.096;2023-05-07T04:37:52;16.17;;;10.27;;
73550;SDS011;61816;53.582;10.096;2023-05-07T04:40:17;19.42;;;11.60;;
73550;SDS011;61816;53.582;10.096;2023-05-07T04:42:43;15.50;;;10.27;;
73550;SDS011;61816;53.582;10.096;2023-05-07T04:45:08;15.98;;;10.45;;
73550;SDS011;61816;53.582;10.096;2023-05-07T04:47:35;18.00;;;11.32;;
73550;SDS011;61816;53.582;10.096;2023-05-07T04:50:01;18.10;;;12.40;;
73550;SDS011;61816;53.582;10.096;2023-05-07T04:52:26;22.02;;;11.90;;
73550;SDS011;61816;53.582;10.096;2023-05-07T04:54:52;20.08;;;12.20;;
73550;SDS011;61816;53.582;10.096;2023-05-07T04:57:17;20.73;;;13.10;;
73550;SDS011;61816;53.582;10.096;2023-05-07T04:59:43;18.08;;;11.32;;
73550;SDS011;61816;53.582;10.096;2023-05-07T05:02:09;18.75;;;12.23;;
73550;SDS011;61816;53.582;10.096;2023-05-07T05:04:35;18.63;;;12.10;;
73550;SDS011;61816;53.582;10.096;2023-05-07T05:07:01;19.05;;;11.50;;
73550;SDS011;61816;53.582;10.096;2023-05-07T05:09:28;20.15;;;12.15;;
73550;SDS011;61816;53.582;10.096;2023-05-07T05:11:54;16.55;;;10.88;;
73550;SDS011;61816;53.582;10.096;2023-05-07T05:14:19;17.83;;;11.63;;
73550;SDS011;61816;53.582;10.096;2023-05-07T05:16:44;17.88;;;11.55;;
73550;SDS011;61816;53.582;10.096;2023-05-07T05:19:10;23.25;;;11.30;;
73550;SDS011;61816;53.582;10.096;2023-05-07T05:21:35;18.27;;;11.40;;
73550;SDS011;61816;53.582;10.096;2023-05-07T05:24:00;16.45;;;11.07;;
73550;SDS011;61816;53.582;10.096;2023-05-07T05:26:26;18.10;;;10.23;;
73550;SDS011;61816;53.582;10.096;2023-05-07T05:28:51;17.48;;;10.27;;
73550;SDS011;61816;53.582;10.096;2023-05-07T05:31:16;18.55;;;11.90;;
73550;SDS011;61816;53.582;10.096;2023-05-07T05:33:42;20.60;;;12.05;;
73550;SDS011;61816;53.582;10.096;2023-05-07T05:36:10;17.88;;;10.80;;
73550;SDS011;61816;53.582;10.096;2023-05-07T05:38:37;19.15;;;11.77;;
73550;SDS011;61816;53.582;10.096;2023-05-07T05:41:02;18.85;;;12.00;;
73550;SDS011;61816;53.582;10.096;2023-05-07T05:43:27;17.90;;;11.48;;
73550;SDS011;61816;53.582;10.096;2023-05-07T05:45:53;17.45;;;10.85;;
73550;SDS011;61816;53.582;10.096;2023-05-07T05:48:18;17.10;;;11.80;;
73550;SDS011;61816;53.582;10.096;2023-05-07T05:50:43;21.63;;;11.68;;
73550;SDS011;61816;53.582;10.096;2023-05-07T05:53:09;17.20;;;10.75;;
73550;SDS011;61816;53.582;10.096;2023-05-07T05:55:34;15.30;;;10.50;;
73550;SDS011;61816;53.582;10.096;2023-05-07T05:58:00;16.30;;;10.13;;
73550;SDS011;61816;53.582;10.096;2023-05-07T06:00:25;17.27;;;10.32;;
73550;SDS011;61816;53.582;10.096;2023-05-07T06:02:51;17.10;;;10.60;;
73550;SDS011;61816;53.582;10.096;2023-05-07T06:05:17;20.88;;;11.40;;
73550;SDS011;61816;53.582;10.096;2023-05-07T06:07:42;14.52;;;9.68;;
73550;SDS011;61816;53.582;10.096;2023-05-07T06:10:07;16.60;;;10.23;;
73550;SDS011;61816;53.582;10.096;2023-05-07T06:12:33;16.67;;;10.07;;
73550;SDS011;61816;53.582;10.096;2023-05-07T06:14:58;14.55;;;10.05;;
73550;SDS011;61816;53.582;10.096;2023-05-07T06:17:23;13.07;;;9.70;;
73550;SDS011;61816;53.582;10.096;2023-05-07T06:19:49;19.27;;;11.52;;
73550;SDS011;61816;53.582;10.096;2023-05-07T06:22:14;16.30;;;10.35;;
73550;SDS011;61816;53.582;10.096;2023-05-07T06:24:40;14.32;;;9.73;;
73550;SDS011;61816;53.582;10.096;2023-05-07T06:27:05;15.85;;;10.13;;
73550;SDS011;61816;53.582;10.096;2023-05-07T06:29:31;20.08;;;9.98;;
73550;SDS011;61816;53.582;10.096;2023-05-07T06:32:08;16.50;;;9.93;;
73550;SDS011;61816;53.582;10.096;2023-05-07T06:34:34;11.98;;;8.73;;
73550;SDS011;61816;53.582;10.096;2023-05-07T06:36:59;16.05;;;9.55;;
73550;SDS011;61816;53.582;10.096;2023-05-07T06:39:25;16.55;;;9.40;;
73550;SDS011;61816;53.582;10.096;2023-05-07T06:41:50;16.02;;;9.75;;
73550;SDS011;61816;53.582;10.096;2023-05-07T06:44:15;22.20;;;9.68;;
73550;SDS011;61816;53.582;10.096;2023-05-07T06:46:41;11.88;;;8.65;;
73550;SDS011;61816;53.582;10.096;2023-05-07T06:49:06;18.45;;;9.15;;
73550;SDS011;61816;53.582;10.096;2023-05-07T06:51:32;13.00;;;8.95;;
73550;SDS011;61816;53.582;10.096;2023-05-07T06:53:57;13.32;;;9.07;;
73550;SDS011;61816;53.582;10.096;2023-05-07T06:56:22;15.20;;;8.40;;
73550;SDS011;61816;53.582;10.096;2023-05-07T06:58:48;13.88;;;8.10;;
73550;SDS011;61816;53.582;10.096;2023-05-07T07:01:14;15.75;;;8.88;;
73550;SDS011;61816;53.582;10.096;2023-05-07T07:03:40;13.88;;;8.63;;
73550;SDS011;61816;53.582;10.096;2023-05-07T07:06:05;12.10;;;8.45;;
73550;SDS011;61816;53.582;10.096;2023-05-07T07:08:31;11.88;;;8.48;;
73550;SDS011;61816;53.582;10.096;2023-05-07T07:10:56;15.63;;;9.20;;
73550;SDS011;61816;53.582;10.096;2023-05-07T07:13:21;12.63;;;8.70;;
73550;SDS011;61816;53.582;10.096;2023-05-07T07:15:47;11.82;;;7.60;;
73550;SDS011;61816;53.582;10.096;2023-05-07T07:18:12;11.73;;;7.18;;
73550;SDS011;61816;53.582;10.096;2023-05-07T07:20:38;11.27;;;8.07;;
73550;SDS011;61816;53.582;10.096;2023-05-07T07:23:03;16.27;;;8.15;;
73550;SDS011;61816;53.582;10.096;2023-05-07T07:25:28;15.43;;;8.43;;
73550;SDS011;61816;53.582;10.096;2023-05-07T07:27:54;14.75;;;8.07;;
73550;SDS011;61816;53.582;10.096;2023-05-07T07:30:19;14.52;;;7.47;;
73550;SDS011;61816;53.582;10.096;2023-05-07T07:32:44;11.48;;;7.60;;
73550;SDS011;61816;53.582;10.096;2023-05-07T07:35:10;14.05;;;7.30;;
73550;SDS011;61816;53.582;10.096;2023-05-07T07:37:35;11.02;;;7.22;;
73550;SDS011;61816;53.582;10.096;2023-05-07T07:40:00;9.00;;;6.88;;
73550;SDS011;61816;53.582;10.096;2023-05-07T07:42:26;11.50;;;7.07;;
73550;SDS011;61816;53.582;10.096;2023-05-07T07:44:51;9.85;;;6.97;;
73550;SDS011;61816;53.582;10.096;2023-05-07T07:47:17;11.85;;;7.43;;
73550;SDS011;61816;53.582;10.096;2023-05-07T07:49:42;12.02;;;6.80;;
73550;SDS011;61816;53.582;10.096;2023-05-07T07:52:11;11.07;;;7.05;;
73550;SDS011;61816;53.582;10.096;2023-05-07T07:54:36;11.73;;;7.65;;
73550;SDS011;61816;53.582;10.096;2023-05-07T07:57:02;11.70;;;8.15;;
73550;SDS011;61816;53.582;10.096;2023-05-07T07:59:27;11.15;;;7.32;;
73550;SDS011;61816;53.582;10.096;2023-05-07T08:01:52;10.30;;;7.32;;
73550;SDS011;61816;53.582;10.096;2023-05-07T08:04:20;9.27;;;7.18;;
73550;SDS011;61816;53.582;10.096;2023-05-07T08:06:46;13.15;;;6.95;;
73550;SDS011;61816;53.582;10.096;2023-05-07T08:09:12;11.98;;;7.18;;
73550;SDS011;61816;53.582;10.096;2023-05-07T08:11:38;12.68;;;7.05;;
73550;SDS011;61816;53.582;10.096;2023-05-07T08:14:03;22.42;;;9.20;;
73550;SDS011;61816;53.582;10.096;2023-05-07T08:16:29;12.82;;;7.53;;
73550;SDS011;61816;53.582;10.096;2023-05-07T08:18:55;10.52;;;7.50;;
73550;SDS011;61816;53.582;10.096;2023-05-07T08:21:20;10.43;;;7.88;;
73550;SDS011;61816;53.582;10.096;2023-05-07T08:23:46;10.57;;;7.18;;
73550;SDS011;61816;53.582;10.096;2023-05-07T08:26:11;12.25;;;7.75;;
73550;SDS011;61816;53.582;10.096;2023-05-07T08:28:36;13.05;;;7.90;;
73550;SDS011;61816;53.582;10.096;2023-05-07T08:31:02;15.68;;;8.18;;
73550;SDS011;61816;53.582;10.096;2023-05-07T08:33:27;11.55;;;7.32;;
73550;SDS011;61816;53.582;10.096;2023-05-07T08:35:53;10.23;;;7.18;;
73550;SDS011;61816;53.582;10.096;2023-05-07T08:38:18;16.83;;;8.55;;
73550;SDS011;61816;53.582;10.096;2023-05-07T08:40:44;9.40;;;6.60;;
73550;SDS011;61816;53.582;10.096;2023-05-07T08:43:11;9.75;;;7.18;;
73550;SDS011;61816;53.582;10.096;2023-05-07T08:45:39;11.55;;;7.45;;
73550;SDS011;61816;53.582;10.096;2023-05-07T08:48:08;10.95;;;7.60;;
73550;SDS011;61816;53.582;10.096;2023-05-07T08:50:39;14.30;;;7.28;;
73550;SDS011;61816;53.582;10.096;2023-05-07T08:53:04;14.95;;;6.15;;
73550;SDS011;61816;53.582;10.096;2023-05-07T08:55:30;12.80;;;6.97;;
73550;SDS011;61816;53.582;10.096;2023-05-07T08:57:56;10.25;;;6.45;;
73550;SDS011;61816;53.582;10.096;2023-05-07T09:00:21;8.75;;;6.30;;
73550;SDS011;61816;53.582;10.096;2023-05-07T09:02:47;12.13;;;6.38;;
73550;SDS011;61816;53.582;10.096;2023-05-07T09:05:13;10.88;;;6.35;;
73550;SDS011;61816;53.582;10.096;2023-05-07T09:07:46;14.80;;;6.32;;
73550;SDS011;61816;53.582;10.096;2023-05-07T09:10:12;11.95;;;7.03;;
73550;SDS011;61816;53.582;10.096;2023-05-07T09:12:38;12.10;;;6.95;;
73550;SDS011;61816;53.582;10.096;2023-05-07T09:15:04;10.70;;;6.55;;
73550;SDS011;61816;53.582;10.096;2023-05-07T09:17:30;12.80;;;6.45;;
73550;SDS011;61816;53.582;10.096;2023-05-07T09:19:56;22.55;;;6.18;;
73550;SDS011;61816;53.582;10.096;2023-05-07T09:22:26;12.82;;;6.15;;
73550;SDS011;61816;53.582;10.096;2023-05-07T09:24:52;7.38;;;5.43;;
73550;SDS011;61816;53.582;10.096;2023-05-07T09:27:17;9.60;;;6.45;;
73550;SDS011;61816;53.582;10.096;2023-05-07T09:29:43;9.52;;;5.55;;
73550;SDS011;61816;53.582;10.096;2023-05-07T09:32:10;10.75;;;6.20;;
73550;SDS011;61816;53.582;10.096;2023-05-07T09:34:35;9.35;;;5.68;;
73550;SDS011;61816;53.582;10.096;2023-05-07T09:37:04;9.73;;;5.60;;
73550;SDS011;61816;53.582;10.096;2023-05-07T09:39:43;8.45;;;5.80;;
73550;SDS011;61816;53.582;10.096;2023-05-07T09:42:16;11.18;;;5.55;;
73550;SDS011;61816;53.582;10.096;2023-05-07T09:44:48;10.18;;;5.55;;
73550;SDS011;61816;53.582;10.096;2023-05-07T09:47:14;11.85;;;5.57;;
73550;SDS011;61816;53.582;10.096;2023-05-07T09:49:44;10.57;;;6.32;;
73550;SDS011;61816;53.582;10.096;2023-05-07T09:52:12;6.85;;;5.03;;
73550;SDS011;61816;53.582;10.096;2023-05-07T09:54:40;8.35;;;5.65;;
73550;SDS011;61816;53.582;10.096;2023-05-07T09:57:06;7.68;;;5.05;;
73550;SDS011;61816;53.582;10.096;2023-05-07T09:59:34;7.63;;;5.00;;
73550;SDS011;61816;53.582;10.096;2023-05-07T10:02:03;9.18;;;5.63;;
73550;SDS011;61816;53.582;10.096;2023-05-07T10:04:28;8.10;;;5.57;;
73550;SDS011;61816;53.582;10.096;2023-05-07T10:06:57;12.32;;;6.07;;
73550;SDS011;61816;53.582;10.096;2023-05-07T10:09:23;8.23;;;5.63;;
73550;SDS011;61816;53.582;10.096;2023-05-07T10:11:50;10.35;;;5.90;;
73550;SDS011;61816;53.582;10.096;2023-05-07T10:14:16;9.40;;;6.30;;
73550;SDS011;61816;53.582;10.096;2023-05-07T10:16:42;10.98;;;5.65;;
73550;SDS011;61816;53.582;10.096;2023-05-07T10:19:08;8.85;;;5.28;;
73550;SDS011;61816;53.582;10.096;2023-05-07T10:21:37;9.35;;;4.88;;
73550;SDS011;61816;53.582;10.096;2023-05-07T10:24:13;9.73;;;4.60;;
73550;SDS011;61816;53.582;10.096;2023-05-07T10:26:45;8.07;;;5.40;;
73550;SDS011;61816;53.582;10.096;2023-05-07T10:34:29;6.65;;;4.88;;
73550;SDS011;61816;53.582;10.096;2023-05-07T10:37:10;8.40;;;5.50;;
73550;SDS011;61816;53.582;10.096;2023-05-07T10:39:37;7.68;;;4.93;;
73550;SDS011;61816;53.582;10.096;2023-05-07T10:42:09;6.95;;;5.13;;
73550;SDS011;61816;53.582;10.096;2023-05-07T10:44:36;9.25;;;5.70;;
73550;SDS011;61816;53.582;10.096;2023-05-07T10:47:12;7.88;;;5.20;;
73550;SDS011;61816;53.582;10.096;2023-05-07T10:52:11;10.43;;;5.80;;
73550;SDS011;61816;53.582;10.096;2023-05-07T10:54:38;6.82;;;4.57;;
73550;SDS011;61816;53.582;10.096;2023-05-07T10:59:59;6.75;;;4.05;;
73550;SDS011;61816;53.582;10.096;2023-05-07T11:02:51;19.42;;;5.60;;
73550;SDS011;61816;53.582;10.096;2023-05-07T11:05:25;10.38;;;4.45;;
73550;SDS011;61816;53.582;10.096;2023-05-07T11:07:57;9.63;;;3.90;;
73550;SDS011;61816;53.582;10.096;2023-05-07T11:13:11;9.00;;;4.63;;
73550;SDS011;61816;53.582;10.096;2023-05-07T11:15:38;11.82;;;3.83;;
73550;SDS011;61816;53.582;10.096;2023-05-07T11:18:04;6.03;;;3.53;;
73550;SDS011;61816;53.582;10.096;2023-05-07T11:20:46;7.88;;;4.35;;
73550;SDS011;61816;53.582;10.096;2023-05-07T11:26:01;4.90;;;3.08;;
73550;SDS011;61816;53.582;10.096;2023-05-07T11:28:29;7.95;;;4.07;;
73550;SDS011;61816;53.582;10.096;2023-05-07T11:30:57;7.63;;;3.88;;
73550;SDS011;61816;53.582;10.096;2023-05-07T11:33:23;6.15;;;3.90;;
73550;SDS011;61816;53.582;10.096;2023-05-07T11:35:50;6.00;;;3.85;;
73550;SDS011;61816;53.582;10.096;2023-05-07T11:38:18;4.90;;;3.55;;
73550;SDS011;61816;53.582;10.096;2023-05-07T11:40:51;7.78;;;4.20;;
73550;SDS011;61816;53.582;10.096;2023-05-07T11:43:17;5.38;;;3.38;;
73550;SDS011;61816;53.582;10.096;2023-05-07T11:45:42;7.05;;;3.38;;
73550;SDS011;61816;53.582;10.096;2023-05-07T11:48:09;6.13;;;3.40;;
73550;SDS011;61816;53.582;10.096;2023-05-07T11:50:34;7.22;;;3.17;;
73550;SDS011;61816;53.582;10.096;2023-05-07T11:53:00;5.75;;;3.70;;
73550;SDS011;61816;53.582;10.096;2023-05-07T11:55:25;6.97;;;3.35;;
73550;SDS011;61816;53.582;10.096;2023-05-07T11:57:51;8.90;;;3.45;;
73550;SDS011;61816;53.582;10.096;2023-05-07T12:00:17;4.97;;;3.45;;
73550;SDS011;61816;53.582;10.096;2023-05-07T12:02:43;4.95;;;3.50;;
73550;SDS011;61816;53.582;10.096;2023-05-07T12:05:10;4.82;;;3.20;;
73550;SDS011;61816;53.582;10.096;2023-05-07T12:07:36;5.88;;;3.28;;
73550;SDS011;61816;53.582;10.096;2023-05-07T12:10:07;6.25;;;3.05;;
73550;SDS011;61816;53.582;10.096;2023-05-07T12:12:40;6.20;;;2.97;;
73550;SDS011;61816;53.582;10.096;2023-05-07T12:15:07;8.40;;;3.47;;
73550;SDS011;61816;53.582;10.096;2023-05-07T12:17:33;7.35;;;2.60;;
73550;SDS011;61816;53.582;10.096;2023-05-07T12:19:58;4.75;;;2.97;;
73550;SDS011;61816;53.582;10.096;2023-05-07T12:22:25;3.25;;;2.65;;
73550;SDS011;61816;53.582;10.096;2023-05-07T12:24:57;5.47;;;2.55;;
73550;SDS011;61816;53.582;10.096;2023-05-07T12:27:23;5.80;;;2.72;;
73550;SDS011;61816;53.582;10.096;2023-05-07T12:29:49;7.53;;;2.80;;
73550;SDS011;61816;53.582;10.096;2023-05-07T12:32:15;5.97;;;2.95;;
73550;SDS011;61816;53.582;10.096;2023-05-07T12:34:42;12.18;;;2.95;;
73550;SDS011;61816;53.582;10.096;2023-05-07T12:37:08;4.60;;;2.65;;
73550;SDS011;61816;53.582;10.096;2023-05-07T12:39:34;7.97;;;2.67;;
73550;SDS011;61816;53.582;10.096;2023-05-07T12:41:59;3.63;;;2.42;;
73550;SDS011;61816;53.582;10.096;2023-05-07T12:44:25;6.47;;;2.47;;
73550;SDS011;61816;53.582;10.096;2023-05-07T12:46:55;4.85;;;2.50;;
73550;SDS011;61816;53.582;10.096;2023-05-07T12:49:20;2.70;;;2.30;;
73550;SDS011;61816;53.582;10.096;2023-05-07T12:51:47;6.07;;;2.05;;
73550;SDS011;61816;53.582;10.096;2023-05-07T12:54:14;4.45;;;2.70;;
73550;SDS011;61816;53.582;10.096;2023-05-07T12:56:59;4.53;;;2.40;;
73550;SDS011;61816;53.582;10.096;2023-05-07T12:59:41;4.50;;;2.65;;
73550;SDS011;61816;53.582;10.096;2023-05-07T13:02:07;4.70;;;2.90;;
73550;SDS011;61816;53.582;10.096;2023-05-07T13:04:34;6.38;;;2.40;;
73550;SDS011;61816;53.582;10.096;2023-05-07T13:07:00;3.70;;;2.00;;
73550;SDS011;61816;53.582;10.096;2023-05-07T13:09:27;3.97;;;2.55;;
73550;SDS011;61816;53.582;10.096;2023-05-07T13:11:55;7.28;;;2.65;;
73550;SDS011;61816;53.582;10.096;2023-05-07T13:14:21;9.18;;;2.80;;
73550;SDS011;61816;53.582;10.096;2023-05-07T13:16:49;5.30;;;2.50;;
73550;SDS011;61816;53.582;10.096;2023-05-07T13:19:15;4.63;;;2.28;;
73550;SDS011;61816;53.582;10.096;2023-05-07T13:21:40;6.28;;;2.60;;
73550;SDS011;61816;53.582;10.096;2023-05-07T13:24:06;3.00;;;1.98;;
73550;SDS011;61816;53.582;10.096;2023-05-07T13:26:31;3.03;;;1.95;;
73550;SDS011;61816;53.582;10.096;2023-05-07T13:28:57;3.33;;;2.30;;
73550;SDS011;61816;53.582;10.096;2023-05-07T13:31:22;8.43;;;2.60;;
73550;SDS011;61816;53.582;10.096;2023-05-07T13:33:48;5.03;;;3.15;;
73550;SDS011;61816;53.582;10.096;2023-05-07T13:36:14;6.72;;;2.10;;
73550;SDS011;61816;53.582;10.096;2023-05-07T13:38:39;5.03;;;1.90;;
73550;SDS011;61816;53.582;10.096;2023-05-07T13:41:05;2.20;;;1.83;;
73550;SDS011;61816;53.582;10.096;2023-05-07T13:43:30;4.72;;;2.40;;
73550;SDS011;61816;53.582;10.096;2023-05-07T13:45:58;2.70;;;1.90;;
73550;SDS011;61816;53.582;10.096;2023-05-07T13:48:24;6.70;;;2.25;;
73550;SDS011;61816;53.582;10.096;2023-05-07T13:50:50;7.57;;;2.00;;
73550;SDS011;61816;53.582;10.096;2023-05-07T13:53:15;6.22;;;1.80;;
73550;SDS011;61816;53.582;10.096;2023-05-07T13:55:43;3.70;;;2.03;;
73550;SDS011;61816;53.582;10.096;2023-05-07T13:58:09;3.40;;;1.88;;
73550;SDS011;61816;53.582;10.096;2023-05-07T14:00:34;6.22;;;2.22;;
73550;SDS011;61816;53.582;10.096;2023-05-07T14:03:00;3.45;;;2.08;;
73550;SDS011;61816;53.582;10.096;2023-05-07T14:05:26;2.90;;;1.60;;
73550;SDS011;61816;53.582;10.096;2023-05-07T14:07:53;2.00;;;1.75;;
73550;SDS011;61816;53.582;10.096;2023-05-07T14:10:20;4.28;;;1.77;;
73550;SDS011;61816;53.582;10.096;2023-05-07T14:12:45;7.72;;;2.35;;
73550;SDS011;61816;53.582;10.096;2023-05-07T14:15:12;5.25;;;2.10;;
73550;SDS011;61816;53.582;10.096;2023-05-07T14:17:37;4.18;;;1.73;;
73550;SDS011;61816;53.582;10.096;2023-05-07T14:20:03;2.75;;;1.63;;
73550;SDS011;61816;53.582;10.096;2023-05-07T14:22:31;4.72;;;1.98;;
73550;SDS011;61816;53.582;10.096;2023-05-07T14:24:56;6.22;;;1.70;;
73550;SDS011;61816;53.582;10.096;2023-05-07T14:27:22;1.90;;;1.60;;
73550;SDS011;61816;53.582;10.096;2023-05-07T14:29:47;6.22;;;2.50;;
73550;SDS011;61816;53.582;10.096;2023-05-07T14:32:16;4.13;;;2.33;;